Time;durP1;ratioP1;P1;durP2;ratioP2;P2;SDS_P1;SDS_P2;PMS_P1;PMS_P2;Temp;Humidity;BMP_temperature;BMP_pressure;BME280_temperature;BME280_humidity;BME280_pressure;Samples;Min_cycle;Max_cycle;Signal;HPM_P1;HPM_P2
2021/12/22 00:02:15;;;;;;;39.67;24.33;;;-2.70;99.90;;;;;;4849712;29;20050;-78
2021/12/22 00:04:45;;;;;;;41.73;25.63;;;-2.70;99.90;;;;;;4836500;29;20029;-79
2021/12/22 00:07:15;;;;;;;41.47;24.67;;;-2.80;99.90;;;;;;4859393;29;20065;-79
2021/12/22 00:09:42;;;;;;;45.00;26.50;;;-2.70;99.90;;;;;;4862070;29;20106;-79
2021/12/22 00:14:43;;;;;;;37.55;23.10;;;-2.80;99.90;;;;;;4927598;24;20049;-78
2021/12/22 00:17:09;;;;;;;44.67;24.83;;;-2.80;99.90;;;;;;4803946;29;20078;-79
2021/12/22 00:19:35;;;;;;;46.75;25.40;;;-2.80;99.90;;;;;;4835521;29;20047;-79
2021/12/22 00:22:01;;;;;;;38.67;23.80;;;-2.90;99.90;;;;;;4830724;29;20042;-79
2021/12/22 00:24:27;;;;;;;40.42;24.13;;;-2.90;99.90;;;;;;4839220;29;20046;-78
2021/12/22 00:26:54;;;;;;;36.70;22.97;;;-2.90;99.90;;;;;;4849109;29;20062;-79
2021/12/22 00:29:23;;;;;;;39.38;22.88;;;-2.90;99.90;;;;;;4838115;29;20081;-79
2021/12/22 00:32:07;;;;;;;36.60;21.75;;;-2.90;99.90;;;;;;4821214;29;20086;-79
2021/12/22 00:34:34;;;;;;;38.17;22.77;;;-2.90;99.90;;;;;;4812538;29;20034;-79
2021/12/22 00:37:00;;;;;;;39.25;23.58;;;-3.00;99.90;;;;;;4831242;29;20042;-79
2021/12/22 00:39:26;;;;;;;42.60;23.15;;;-3.00;99.90;;;;;;4818077;29;20386;-79
2021/12/22 00:41:51;;;;;;;39.60;24.27;;;-3.00;99.90;;;;;;4832863;29;20038;-79
2021/12/22 00:44:17;;;;;;;42.77;24.53;;;-3.00;99.90;;;;;;4817771;29;20057;-79
2021/12/22 00:46:43;;;;;;;43.70;24.07;;;-3.00;99.90;;;;;;4817233;29;20356;-79
2021/12/22 00:49:09;;;;;;;40.63;22.65;;;-3.00;99.90;;;;;;4817350;29;20071;-79
2021/12/22 00:51:35;;;;;;;40.00;22.80;;;-3.00;99.90;;;;;;4832614;29;20070;-79
2021/12/22 00:54:00;;;;;;;39.93;23.47;;;-3.00;99.90;;;;;;4818443;29;20050;-78
2021/12/22 00:56:27;;;;;;;44.53;24.17;;;-3.00;99.90;;;;;;4815906;29;20053;-78
2021/12/22 00:58:52;;;;;;;45.08;23.98;;;-3.00;99.90;;;;;;4847840;29;20125;-79
2021/12/22 01:01:18;;;;;;;43.47;24.57;;;-3.00;99.90;;;;;;4817471;29;20072;-79
2021/12/22 01:03:44;;;;;;;36.97;21.73;;;-3.00;99.90;;;;;;4810403;29;20102;-79
2021/12/22 01:06:10;;;;;;;35.67;23.70;;;-3.00;99.90;;;;;;4817551;29;20034;-79
2021/12/22 01:08:35;;;;;;;36.20;22.43;;;-3.00;99.90;;;;;;4815869;29;20050;-78
2021/12/22 01:11:01;;;;;;;37.37;21.53;;;-3.00;99.90;;;;;;4810326;29;20050;-78
2021/12/22 01:13:29;;;;;;;40.43;23.90;;;-3.00;99.90;;;;;;4811494;29;20047;-79
2021/12/22 01:15:54;;;;;;;37.00;20.83;;;-3.00;99.90;;;;;;4815163;29;21388;-79
2021/12/22 01:18:30;;;;;;;34.28;21.58;;;-3.10;99.90;;;;;;4809667;29;20047;-79
2021/12/22 01:23:33;;;;;;;40.92;21.65;;;-3.20;99.90;;;;;;4847084;29;20037;-79
2021/12/22 01:26:04;;;;;;;39.72;22.38;;;-3.20;99.90;;;;;;4817843;29;20046;-79
2021/12/22 01:28:30;;;;;;;31.45;21.05;;;-3.20;99.90;;;;;;4832800;29;20046;-79
2021/12/22 01:31:02;;;;;;;36.05;23.27;;;-3.30;99.90;;;;;;4832627;29;20059;-79
2021/12/22 01:33:28;;;;;;;33.65;20.95;;;-3.30;99.90;;;;;;4833124;29;20090;-79
2021/12/22 01:35:53;;;;;;;36.87;21.00;;;-3.30;99.90;;;;;;4832797;29;20035;-79
2021/12/22 01:38:20;;;;;;;33.83;20.73;;;-3.30;99.90;;;;;;4832693;29;20045;-79
2021/12/22 01:40:46;;;;;;;38.08;21.40;;;-3.40;99.90;;;;;;4816704;29;20050;-79
2021/12/22 01:43:15;;;;;;;34.40;21.25;;;-3.40;99.90;;;;;;4813407;29;20051;-79
2021/12/22 01:53:44;;;;;;;38.80;22.48;;;-3.40;99.90;;;;;;4889652;24;20055;-79
2021/12/22 01:56:24;;;;;;;31.65;21.10;;;-3.40;99.90;;;;;;4850705;29;20030;-79
2021/12/22 01:58:52;;;;;;;29.95;19.20;;;-3.50;99.90;;;;;;4836559;29;20053;-78
2021/12/22 02:01:18;;;;;;;28.73;19.65;;;-3.50;99.90;;;;;;4836194;29;20052;-79
2021/12/22 02:03:47;;;;;;;31.27;20.48;;;-3.40;99.90;;;;;;4817938;29;20038;-79
2021/12/22 02:06:15;;;;;;;34.05;21.00;;;-3.50;99.90;;;;;;4830206;29;20113;-78
2021/12/22 02:08:44;;;;;;;31.08;19.75;;;-3.50;99.90;;;;;;4818129;29;20050;-79
2021/12/22 02:11:11;;;;;;;32.40;19.73;;;-3.60;99.90;;;;;;4820342;29;20026;-78
2021/12/22 02:13:40;;;;;;;32.70;19.20;;;-3.60;99.90;;;;;;4836432;29;20069;-78
2021/12/22 02:16:10;;;;;;;37.90;19.33;;;-3.60;99.90;;;;;;4833634;29;20026;-78
2021/12/22 02:18:39;;;;;;;30.67;18.83;;;-3.60;99.90;;;;;;4844068;29;20053;-78
2021/12/22 02:26:24;;;;;;;34.22;19.52;;;-3.70;99.90;;;;;;5246709;23;20056;-79
2021/12/22 04:31:28;;;;;;;38.20;19.20;;;-3.50;99.90;;;;;;4881871;24;21745;-76
2021/12/22 05:36:54;;;;;;;35.30;19.80;;;-3.60;99.90;;;;;;4850675;29;20069;-76
2021/12/22 05:39:20;;;;;;;32.92;18.48;;;-3.60;99.90;;;;;;4805650;29;20058;-76
2021/12/22 05:41:45;;;;;;;37.07;19.50;;;-3.60;99.90;;;;;;4857942;29;20048;-76
2021/12/22 05:44:11;;;;;;;34.43;19.53;;;-3.60;99.90;;;;;;4840463;29;20030;-76
2021/12/22 05:46:37;;;;;;;36.27;19.80;;;-3.60;99.90;;;;;;4823759;29;20037;-76
2021/12/22 05:49:02;;;;;;;36.60;19.50;;;-3.60;99.90;;;;;;4833700;29;20031;-75
2021/12/22 05:51:32;;;;;;;35.00;19.30;;;-3.70;99.90;;;;;;4815867;29;20046;-76
2021/12/22 05:53:58;;;;;;;37.72;20.13;;;-3.70;99.90;;;;;;4809098;29;20065;-75
2021/12/22 05:56:25;;;;;;;35.07;19.87;;;-3.70;99.90;;;;;;5216806;24;20048;-77
2021/12/22 05:58:51;;;;;;;38.08;20.55;;;-3.70;99.90;;;;;;4834850;29;20053;-76
2021/12/22 06:01:18;;;;;;;38.37;19.97;;;-3.70;99.90;;;;;;4832773;29;20039;-76
2021/12/22 06:03:44;;;;;;;34.50;19.90;;;-3.70;99.90;;;;;;4838354;29;20054;-76
2021/12/22 06:06:11;;;;;;;40.13;22.00;;;-3.70;99.90;;;;;;4825495;29;20037;-76
2021/12/22 06:08:37;;;;;;;36.28;19.38;;;-3.80;99.90;;;;;;4849890;29;20068;-76
2021/12/22 06:11:03;;;;;;;39.15;20.45;;;-3.70;99.90;;;;;;5168608;24;20081;-76
2021/12/22 06:13:29;;;;;;;37.13;20.77;;;-3.70;99.90;;;;;;4818429;29;20042;-76
2021/12/22 06:18:34;;;;;;;39.25;20.88;;;-3.80;99.90;;;;;;5351589;24;20290;-75
2021/12/22 06:23:35;;;;;;;34.97;19.83;;;-3.80;99.90;;;;;;5075198;24;20049;-76
2021/12/22 06:26:01;;;;;;;39.03;20.60;;;-3.80;99.90;;;;;;4821713;29;20030;-77
2021/12/22 06:31:03;;;;;;;34.80;19.25;;;-3.80;99.90;;;;;;5089843;24;20052;-76
2021/12/22 06:41:15;;;;;;;34.97;18.95;;;-3.90;99.90;;;;;;5444746;24;20054;-77
2021/12/22 07:15:31;;;;;;;40.25;22.10;;;-4.00;99.90;;;;;;4989228;23;20049;-75
2021/12/22 07:30:55;;;;;;;34.50;19.13;;;-4.10;99.90;;;;;;2438097;24;20233;-78
2021/12/22 07:33:21;;;;;;;33.38;18.33;;;-4.10;99.90;;;;;;4818310;29;20050;-80
2021/12/22 07:38:31;;;;;;;35.83;18.33;;;-4.00;99.90;;;;;;5097694;24;20045;-77
2021/12/22 07:40:59;;;;;;;;;;;-4.00;99.90;;;;;;4869611;29;20037;-77
2021/12/22 07:46:03;;;;;;;34.42;18.63;;;-4.00;99.90;;;;;;4833882;24;20043;-75
2021/12/22 07:51:05;;;;;;;31.60;17.65;;;-4.10;99.90;;;;;;5028959;24;20049;-77
2021/12/22 07:53:30;;;;;;;36.88;18.38;;;-4.10;99.90;;;;;;4837979;29;20066;-77
2021/12/22 07:55:56;;;;;;;32.37;18.07;;;-4.10;99.90;;;;;;4826622;29;20049;-77
2021/12/22 07:58:23;;;;;;;32.20;17.60;;;-4.10;99.90;;;;;;4834884;29;20050;-77
2021/12/22 08:00:49;;;;;;;30.08;17.85;;;-4.10;99.90;;;;;;4819756;29;20066;-77
2021/12/22 08:08:26;;;;;;;34.97;17.17;;;-4.10;99.90;;;;;;5111641;23;20046;-78
2021/12/22 08:10:52;;;;;;;37.53;17.90;;;-4.00;99.90;;;;;;4834457;29;20066;-77
2021/12/22 08:13:18;;;;;;;33.10;17.67;;;-4.00;99.90;;;;;;4816569;29;20284;-77
2021/12/22 08:15:44;;;;;;;35.60;18.07;;;-4.00;99.90;;;;;;4829773;29;20030;-77
2021/12/22 08:18:10;;;;;;;38.97;18.08;;;-4.00;99.90;;;;;;4831339;29;20310;-77
2021/12/22 08:20:36;;;;;;;34.78;18.45;;;-3.90;99.90;;;;;;4826023;29;20050;-77
2021/12/22 08:23:02;;;;;;;35.87;18.03;;;-3.80;99.90;;;;;;4817022;29;20058;-78
2021/12/22 08:25:28;;;;;;;33.83;17.73;;;-3.80;99.90;;;;;;4826053;29;20053;-78
2021/12/22 08:27:53;;;;;;;34.70;19.00;;;-3.80;99.90;;;;;;4811469;29;20030;-78
2021/12/22 08:30:20;;;;;;;35.70;18.67;;;-3.80;99.90;;;;;;4840602;29;20297;-78
2021/12/22 08:32:46;;;;;;;36.50;17.60;;;-3.70;99.90;;;;;;4808876;29;20035;-77
2021/12/22 08:35:15;;;;;;;35.65;17.70;;;-3.70;99.90;;;;;;4826059;29;20113;-78
2021/12/22 08:40:26;;;;;;;35.63;17.45;;;-3.60;99.90;;;;;;4838649;29;20061;-77
2021/12/22 08:42:52;;;;;;;32.30;16.90;;;-3.50;99.90;;;;;;4838944;29;20100;-77
2021/12/22 08:45:18;;;;;;;35.92;17.17;;;-3.50;99.90;;;;;;4827352;29;20109;-78
2021/12/22 08:47:44;;;;;;;33.10;15.90;;;-3.40;99.90;;;;;;4816351;29;20045;-77
2021/12/22 08:50:12;;;;;;;37.85;17.27;;;-3.40;99.90;;;;;;4850214;29;20018;-78
2021/12/22 08:52:38;;;;;;;30.10;16.85;;;-3.30;99.90;;;;;;4815290;29;20026;-77
2021/12/22 08:55:05;;;;;;;32.17;16.52;;;-3.30;99.90;;;;;;4805747;29;20071;-77
2021/12/22 08:57:31;;;;;;;38.30;18.13;;;-3.30;99.90;;;;;;4813301;29;20062;-77
2021/12/22 08:59:58;;;;;;;33.13;17.23;;;-3.30;99.90;;;;;;4814530;29;20051;-78
2021/12/22 09:02:24;;;;;;;34.03;17.38;;;-3.20;99.90;;;;;;4818726;29;20070;-78
2021/12/22 09:04:50;;;;;;;36.47;18.48;;;-3.20;99.90;;;;;;4793795;29;20042;-78
2021/12/22 09:07:16;;;;;;;37.60;18.47;;;-3.10;99.90;;;;;;4813094;29;20033;-78
2021/12/22 09:09:41;;;;;;;39.87;18.83;;;-3.00;99.90;;;;;;4795560;29;20074;-78
2021/12/22 09:12:08;;;;;;;37.20;18.87;;;-3.00;99.90;;;;;;4790769;29;20551;-78
2021/12/22 09:14:34;;;;;;;36.95;18.35;;;-3.00;99.90;;;;;;4791557;29;20042;-78
2021/12/22 09:17:00;;;;;;;35.60;17.70;;;-3.00;99.90;;;;;;4807143;29;20049;-78
2021/12/22 09:19:26;;;;;;;35.83;17.43;;;-2.90;99.90;;;;;;4824013;29;20045;-78
2021/12/22 09:21:52;;;;;;;37.33;17.00;;;-2.80;99.90;;;;;;4829883;29;20102;-80
2021/12/22 09:24:19;;;;;;;33.73;17.40;;;-2.80;99.90;;;;;;4807743;29;20079;-80
2021/12/22 09:26:45;;;;;;;32.05;17.13;;;-2.70;99.90;;;;;;4805896;29;20291;-78
2021/12/22 09:29:11;;;;;;;34.20;18.15;;;-2.70;99.90;;;;;;4833295;29;20045;-78
2021/12/22 09:31:37;;;;;;;32.43;17.53;;;-2.60;99.90;;;;;;4807881;29;20042;-80
2021/12/22 09:34:04;;;;;;;37.13;18.50;;;-2.60;99.90;;;;;;4821145;29;20045;-79
2021/12/22 09:36:30;;;;;;;36.33;18.02;;;-2.50;99.90;;;;;;4794523;29;20054;-78
2021/12/22 09:38:56;;;;;;;33.67;17.10;;;-2.40;99.90;;;;;;4797218;29;20076;-79
2021/12/22 09:41:22;;;;;;;33.87;18.07;;;-2.30;99.90;;;;;;4831246;29;20074;-80
2021/12/22 09:43:50;;;;;;;39.33;18.98;;;-2.30;99.90;;;;;;4816108;29;20576;-80
2021/12/22 09:46:20;;;;;;;39.72;20.80;;;-2.30;99.90;;;;;;4817470;29;20102;-79
2021/12/22 09:53:44;;;;;;;34.97;17.17;;;-2.10;99.90;;;;;;4801598;29;20080;-78
2021/12/22 09:56:13;;;;;;;34.13;17.83;;;-2.10;99.90;;;;;;4832240;29;20105;-78
2021/12/22 09:58:40;;;;;;;39.45;19.00;;;-2.00;99.90;;;;;;4819724;29;20105;-78
2021/12/22 10:01:06;;;;;;;35.50;17.65;;;-2.00;99.90;;;;;;4814957;29;20049;-78
2021/12/22 10:03:32;;;;;;;37.33;18.10;;;-1.90;99.90;;;;;;4829832;29;20037;-78
2021/12/22 10:05:57;;;;;;;36.33;17.27;;;-1.90;99.90;;;;;;4826833;29;20054;-78
2021/12/22 10:08:26;;;;;;;35.67;17.67;;;-1.90;99.90;;;;;;4806138;29;20059;-78
2021/12/22 10:11:04;;;;;;;32.17;17.27;;;-1.80;99.90;;;;;;4815632;29;20033;-78
2021/12/22 10:13:31;;;;;;;36.58;18.95;;;-1.80;99.90;;;;;;4823769;29;20098;-78
2021/12/22 10:15:58;;;;;;;34.80;16.80;;;-1.80;99.90;;;;;;4806358;29;20042;-80
2021/12/22 10:18:29;;;;;;;33.90;17.08;;;-1.70;99.90;;;;;;4805078;29;20042;-79
2021/12/22 10:21:08;;;;;;;35.13;18.58;;;-1.70;99.90;;;;;;4803713;29;20084;-79
2021/12/22 10:23:35;;;;;;;36.65;16.88;;;-1.70;99.90;;;;;;4823838;29;20042;-80
2021/12/22 10:26:04;;;;;;;28.85;16.63;;;-1.50;99.90;;;;;;4795526;29;20046;-80
2021/12/22 10:28:44;;;;;;;35.47;17.23;;;-1.60;99.90;;;;;;4817678;29;20057;-78
2021/12/22 10:31:11;;;;;;;31.65;17.85;;;-1.60;99.90;;;;;;4795636;29;20109;-78
2021/12/22 10:33:41;;;;;;;34.33;16.42;;;-1.50;99.90;;;;;;4800728;29;20078;-78
2021/12/22 10:36:17;;;;;;;38.35;18.75;;;-1.50;99.90;;;;;;4796138;29;20053;-80
2021/12/22 10:39:34;;;;;;;34.38;18.63;;;-1.40;99.90;;;;;;4834742;29;20046;-81
2021/12/22 10:45:52;;;;;;;34.30;18.23;;;-1.40;99.90;;;;;;4779468;29;20273;-80
2021/12/22 10:51:10;;;;;;;33.83;18.25;;;-1.30;99.90;;;;;;4820236;29;20050;-80
2021/12/22 10:54:09;;;;;;;32.40;18.35;;;-1.30;99.90;;;;;;4821805;29;20046;-80
2021/12/22 11:50:12;;;;;;;27.95;17.40;;;-0.80;99.90;;;;;;2638080;23;20032;-79
2021/12/22 14:04:30;;;;;;;35.88;19.10;;;-0.90;99.90;;;;;;4815731;29;20068;-78
2021/12/22 14:07:07;;;;;;;34.85;17.85;;;-1.00;99.90;;;;;;4791416;29;20062;-79
2021/12/22 14:09:40;;;;;;;36.13;18.67;;;-1.00;99.90;;;;;;4807128;29;20043;-79
2021/12/22 14:12:13;;;;;;;31.65;17.02;;;-1.00;99.90;;;;;;4817333;29;20195;-80
2021/12/22 14:14:48;;;;;;;35.20;17.95;;;-1.10;99.90;;;;;;4809926;29;20070;-81
2021/12/22 14:17:34;;;;;;;35.25;18.58;;;-1.10;99.90;;;;;;4803370;29;20598;-81
2021/12/22 14:20:05;;;;;;;38.13;19.13;;;-1.20;99.90;;;;;;4806833;29;20059;-80
2021/12/22 14:22:33;;;;;;;35.15;18.70;;;-1.20;99.90;;;;;;4819973;29;20809;-80
2021/12/22 14:25:23;;;;;;;32.90;17.48;;;-1.20;99.90;;;;;;4828684;29;20051;-80
2021/12/22 14:28:04;;;;;;;33.53;18.40;;;-1.30;99.90;;;;;;4828778;29;20043;-80
2021/12/22 14:30:37;;;;;;;37.50;19.95;;;-1.30;99.90;;;;;;4799503;29;20053;-80
2021/12/22 14:33:14;;;;;;;30.88;17.40;;;-1.30;99.90;;;;;;4790783;29;20046;-80
2021/12/22 14:35:45;;;;;;;34.92;19.67;;;-1.40;99.90;;;;;;4802084;29;20138;-80
2021/12/22 14:38:18;;;;;;;35.35;19.80;;;-1.40;99.90;;;;;;4792177;29;20039;-79
2021/12/22 14:41:02;;;;;;;40.53;21.00;;;-1.40;99.90;;;;;;4819358;29;20054;-79
2021/12/22 14:43:39;;;;;;;34.55;18.80;;;-1.50;99.90;;;;;;4807806;29;20413;-80
2021/12/22 14:46:06;;;;;;;38.13;19.08;;;-1.50;99.90;;;;;;4809006;29;20110;-80
2021/12/22 14:48:38;;;;;;;32.25;18.55;;;-1.60;99.90;;;;;;4813065;29;20046;-79
2021/12/22 14:51:20;;;;;;;35.33;18.00;;;-1.60;99.90;;;;;;4821273;29;20059;-79
2021/12/22 14:53:58;;;;;;;35.72;18.38;;;-1.70;99.90;;;;;;4817310;29;20070;-79
2021/12/22 14:56:27;;;;;;;32.25;17.88;;;-1.70;99.90;;;;;;4823441;29;20100;-79
2021/12/22 14:58:57;;;;;;;36.50;17.27;;;-1.70;99.90;;;;;;4815989;29;20047;-80
2021/12/22 15:01:26;;;;;;;34.00;18.20;;;-1.80;99.90;;;;;;4795390;29;20108;-80
2021/12/22 15:03:56;;;;;;;31.02;17.40;;;-1.80;99.90;;;;;;4805515;29;20078;-79
2021/12/22 15:06:23;;;;;;;34.50;18.55;;;-1.80;99.90;;;;;;4802473;29;20504;-80
2021/12/22 15:08:50;;;;;;;31.67;17.13;;;-1.80;99.90;;;;;;4809682;29;20054;-78
2021/12/22 15:11:24;;;;;;;31.33;18.23;;;-1.80;99.90;;;;;;4843927;29;20022;-78
2021/12/22 15:13:50;;;;;;;31.60;17.65;;;-1.80;99.90;;;;;;4827440;29;20031;-79
2021/12/22 15:16:20;;;;;;;34.10;19.10;;;-1.90;99.90;;;;;;4811412;29;20134;-80
2021/12/22 15:18:46;;;;;;;32.65;18.10;;;-1.80;99.90;;;;;;4878301;24;20069;-80
2021/12/22 15:21:14;;;;;;;31.63;18.63;;;-1.90;99.90;;;;;;4827284;29;20054;-79
2021/12/22 15:23:40;;;;;;;32.10;17.98;;;-1.90;99.90;;;;;;4797383;29;20046;-80
2021/12/22 15:26:07;;;;;;;31.00;17.50;;;-1.90;99.90;;;;;;4829923;29;20039;-80
2021/12/22 15:28:40;;;;;;;37.35;18.95;;;-1.90;99.90;;;;;;4821000;29;20034;-80
2021/12/22 15:31:06;;;;;;;32.70;18.90;;;-1.90;99.90;;;;;;4832690;29;20057;-78
2021/12/22 15:33:34;;;;;;;38.00;19.45;;;-1.90;99.90;;;;;;4817091;29;20043;-80
2021/12/22 15:36:01;;;;;;;40.25;21.02;;;-1.90;99.90;;;;;;4826693;29;20039;-80
2021/12/22 15:38:27;;;;;;;38.85;21.77;;;-1.90;99.90;;;;;;4821444;29;20046;-79
2021/12/22 15:40:54;;;;;;;41.70;21.27;;;-1.90;99.90;;;;;;4828352;29;20140;-79
2021/12/22 15:43:20;;;;;;;38.22;19.63;;;-1.90;99.90;;;;;;4825550;29;20074;-80
2021/12/22 15:45:46;;;;;;;32.65;18.75;;;-1.90;99.90;;;;;;4807493;29;20057;-79
2021/12/22 15:48:12;;;;;;;34.03;18.07;;;-1.90;99.90;;;;;;4805992;29;20046;-80
2021/12/22 15:50:39;;;;;;;34.17;17.83;;;-1.90;99.90;;;;;;4820657;29;20299;-80
2021/12/22 15:53:05;;;;;;;33.25;17.05;;;-2.00;99.90;;;;;;4791017;29;20512;-79
2021/12/22 15:55:31;;;;;;;35.72;18.63;;;-2.00;99.90;;;;;;4817639;29;20110;-79
2021/12/22 15:57:57;;;;;;;34.35;17.98;;;-2.00;99.90;;;;;;4796337;29;20054;-79
2021/12/22 16:00:27;;;;;;;32.23;17.70;;;-2.00;99.90;;;;;;4816301;29;20510;-79
2021/12/22 16:02:55;;;;;;;35.45;18.50;;;-2.00;99.90;;;;;;4816562;29;20648;-80
2021/12/22 16:05:22;;;;;;;37.65;18.95;;;-2.10;99.90;;;;;;4804156;29;20042;-77
2021/12/22 16:07:48;;;;;;;33.13;17.65;;;-2.10;99.90;;;;;;4823366;29;20045;-77
2021/12/22 16:10:15;;;;;;;34.33;19.20;;;-2.10;99.90;;;;;;4805485;29;20514;-78
2021/12/22 16:12:41;;;;;;;35.42;18.40;;;-2.10;99.90;;;;;;4807244;29;20058;-78
2021/12/22 16:15:09;;;;;;;34.20;17.77;;;-2.10;99.90;;;;;;4805054;29;20050;-78
2021/12/22 16:17:35;;;;;;;34.08;17.88;;;-2.20;99.90;;;;;;4812012;29;20054;-79
2021/12/22 16:20:03;;;;;;;30.70;17.77;;;-2.20;99.90;;;;;;4812217;29;20058;-79
2021/12/22 16:22:30;;;;;;;34.95;17.40;;;-2.20;99.90;;;;;;4811388;29;20050;-79
2021/12/22 16:24:55;;;;;;;34.85;17.58;;;-2.20;99.90;;;;;;4816524;29;20124;-79
2021/12/22 16:27:22;;;;;;;34.17;17.17;;;-2.20;99.90;;;;;;4833818;29;20042;-79
2021/12/22 16:29:48;;;;;;;31.05;17.48;;;-2.20;99.90;;;;;;4818607;29;20073;-80
2021/12/22 16:32:14;;;;;;;35.77;18.53;;;-2.20;99.90;;;;;;4816699;29;20511;-79
2021/12/22 16:34:39;;;;;;;34.25;18.75;;;-2.20;99.90;;;;;;4795066;29;20042;-79
2021/12/22 16:37:05;;;;;;;32.80;17.97;;;-2.20;99.90;;;;;;4804449;29;20128;-78
2021/12/22 16:39:31;;;;;;;33.37;16.77;;;-2.20;99.90;;;;;;4798302;29;20049;-80
2021/12/22 16:42:00;;;;;;;32.08;17.08;;;-2.20;99.90;;;;;;4802150;29;20388;-79
2021/12/22 16:44:27;;;;;;;34.13;17.80;;;-2.20;99.90;;;;;;4815228;29;20045;-79
2021/12/22 16:46:55;;;;;;;32.58;17.35;;;-2.20;99.90;;;;;;4783880;29;20045;-79
2021/12/22 16:49:22;;;;;;;33.00;17.38;;;-2.20;99.90;;;;;;4817295;29;20046;-78
2021/12/22 16:51:48;;;;;;;34.65;17.73;;;-2.20;99.90;;;;;;4802473;29;20050;-78
2021/12/22 16:54:14;;;;;;;33.07;18.13;;;-2.20;99.90;;;;;;4807367;29;20057;-78
2021/12/22 16:56:40;;;;;;;35.08;17.90;;;-2.20;99.90;;;;;;4809813;29;20053;-78
2021/12/22 16:59:06;;;;;;;31.67;16.98;;;-2.20;99.90;;;;;;4791877;29;20053;-78
2021/12/22 17:01:34;;;;;;;33.45;18.42;;;-2.20;99.90;;;;;;4784228;29;20054;-78
2021/12/22 17:04:04;;;;;;;35.40;18.77;;;-2.10;99.90;;;;;;4791491;29;20044;-79
2021/12/22 17:06:38;;;;;;;34.95;19.25;;;-2.10;99.90;;;;;;4819058;29;20053;-78
2021/12/22 17:09:04;;;;;;;30.48;17.73;;;-2.10;99.90;;;;;;4766899;29;20463;-78
2021/12/22 17:11:30;;;;;;;32.53;18.27;;;-2.10;99.90;;;;;;4823470;29;20133;-78
2021/12/22 17:13:56;;;;;;;33.40;18.03;;;-2.10;99.90;;;;;;4807673;29;20046;-78
2021/12/22 17:16:21;;;;;;;36.23;18.03;;;-2.10;99.90;;;;;;4813112;29;20049;-78
2021/12/22 17:18:47;;;;;;;34.17;19.10;;;-2.10;99.90;;;;;;4789711;29;20049;-78
2021/12/22 17:21:13;;;;;;;34.80;19.83;;;-2.00;99.90;;;;;;4803294;29;20516;-78
2021/12/22 17:23:39;;;;;;;32.08;17.92;;;-2.00;99.90;;;;;;4788710;29;20325;-78
2021/12/22 17:26:05;;;;;;;35.23;18.57;;;-2.10;99.90;;;;;;4807869;29;20038;-78
2021/12/22 17:28:37;;;;;;;29.48;17.00;;;-2.00;99.90;;;;;;4795132;29;20410;-78
2021/12/22 17:31:04;;;;;;;33.45;18.55;;;-2.10;99.90;;;;;;4793472;29;20053;-78
2021/12/22 17:33:30;;;;;;;33.47;18.67;;;-2.10;99.90;;;;;;4788759;29;20123;-78
2021/12/22 17:35:56;;;;;;;35.33;19.33;;;-2.00;99.90;;;;;;4791675;29;20502;-78
2021/12/22 17:38:23;;;;;;;31.15;17.17;;;-2.10;99.90;;;;;;4791146;29;20049;-78
2021/12/22 17:40:51;;;;;;;30.65;16.77;;;-2.10;99.90;;;;;;4788352;29;20054;-79
2021/12/22 17:43:17;;;;;;;33.35;17.25;;;-2.10;99.90;;;;;;4786957;29;20069;-78
2021/12/22 17:45:44;;;;;;;31.05;17.23;;;-2.10;99.90;;;;;;4807613;29;20046;-78
2021/12/22 17:48:10;;;;;;;33.33;18.08;;;-2.10;99.90;;;;;;4819656;29;20046;-78
2021/12/22 17:50:37;;;;;;;32.95;18.58;;;-2.10;99.90;;;;;;4802580;29;20060;-78
2021/12/22 17:53:04;;;;;;;31.27;18.20;;;-2.10;99.90;;;;;;4827868;29;20504;-78
2021/12/22 17:55:34;;;;;;;33.70;18.27;;;-2.10;99.90;;;;;;4807055;29;20057;-78
2021/12/22 17:58:05;;;;;;;32.35;17.75;;;-2.10;99.90;;;;;;4791568;29;20416;-78
2021/12/22 18:00:31;;;;;;;32.20;16.90;;;-2.20;99.90;;;;;;4789890;29;20144;-78
2021/12/22 18:02:57;;;;;;;33.50;18.17;;;-2.20;99.90;;;;;;4806403;29;20049;-78
2021/12/22 18:05:26;;;;;;;35.40;18.43;;;-2.20;99.90;;;;;;4791876;29;20041;-78
2021/12/22 18:07:53;;;;;;;31.90;18.65;;;-2.20;99.90;;;;;;4792773;29;21457;-78
2021/12/22 18:10:23;;;;;;;32.30;18.83;;;-2.10;99.90;;;;;;4807242;29;20407;-78
2021/12/22 18:12:58;;;;;;;32.72;17.92;;;-2.10;99.90;;;;;;4827943;29;20057;-79
2021/12/22 18:15:25;;;;;;;32.03;18.42;;;-2.10;99.90;;;;;;4817458;29;20049;-78
2021/12/22 18:17:52;;;;;;;33.67;18.00;;;-2.10;99.90;;;;;;4789307;29;20053;-78
2021/12/22 18:20:18;;;;;;;33.88;18.05;;;-2.00;99.90;;;;;;4790230;29;20094;-78
2021/12/22 18:22:45;;;;;;;39.20;19.35;;;-2.00;99.90;;;;;;4801808;29;20053;-78
2021/12/22 18:25:11;;;;;;;35.88;18.88;;;-2.00;99.90;;;;;;4790488;29;20046;-78
2021/12/22 18:27:38;;;;;;;32.67;18.20;;;-2.00;99.90;;;;;;4814894;29;20041;-79
2021/12/22 18:30:08;;;;;;;74.70;35.20;;;-2.00;99.90;;;;;;4817534;29;20050;-78
2021/12/22 18:32:33;;;;;;;36.65;21.55;;;-2.00;99.90;;;;;;4831688;29;20046;-78
2021/12/22 18:35:03;;;;;;;36.03;18.23;;;-2.00;99.90;;;;;;4800168;29;20056;-79
2021/12/22 18:37:31;;;;;;;33.90;18.25;;;-2.00;99.90;;;;;;4812775;29;20062;-79
2021/12/22 18:39:59;;;;;;;33.17;18.60;;;-1.90;99.90;;;;;;4784443;29;20372;-78
2021/12/22 18:42:26;;;;;;;34.72;19.08;;;-2.00;99.90;;;;;;4807085;29;20093;-78
2021/12/22 18:44:53;;;;;;;37.13;19.60;;;-1.90;99.90;;;;;;4795173;29;20137;-78
2021/12/22 18:47:19;;;;;;;36.97;20.60;;;-1.90;99.90;;;;;;4823648;29;20046;-78
2021/12/22 18:49:45;;;;;;;35.08;19.98;;;-1.90;99.90;;;;;;4835849;29;20072;-78
2021/12/22 18:52:11;;;;;;;34.90;20.13;;;-1.90;99.90;;;;;;4809962;29;20692;-78
2021/12/22 18:54:37;;;;;;;33.70;19.53;;;-1.80;99.90;;;;;;4797655;29;20362;-78
2021/12/22 18:57:06;;;;;;;39.10;19.90;;;-1.80;99.90;;;;;;4818580;29;20485;-78
2021/12/22 18:59:33;;;;;;;34.28;18.80;;;-1.80;99.90;;;;;;4801449;29;20046;-79
2021/12/22 19:02:00;;;;;;;33.05;19.75;;;-1.80;99.90;;;;;;4801822;29;20530;-79
2021/12/22 19:04:26;;;;;;;33.40;19.27;;;-1.70;99.90;;;;;;4801066;29;20042;-78
2021/12/22 19:06:52;;;;;;;29.23;17.83;;;-1.80;99.90;;;;;;4804975;29;20416;-80
2021/12/22 19:09:18;;;;;;;35.25;19.83;;;-1.80;99.90;;;;;;4781215;29;20288;-79
2021/12/22 19:11:44;;;;;;;36.53;19.38;;;-1.70;99.90;;;;;;4813694;29;20047;-80
2021/12/22 19:14:10;;;;;;;33.50;19.07;;;-1.70;99.90;;;;;;4789921;29;20049;-80
2021/12/22 19:16:36;;;;;;;42.00;24.03;;;-1.70;99.90;;;;;;4795086;29;20046;-80
2021/12/22 19:19:02;;;;;;;45.37;23.20;;;-1.70;99.90;;;;;;4786321;29;20073;-79
2021/12/22 19:21:28;;;;;;;41.42;22.17;;;-1.60;99.90;;;;;;4814536;29;20079;-79
2021/12/22 19:23:54;;;;;;;36.15;19.85;;;-1.60;99.90;;;;;;4822547;29;20046;-79
2021/12/22 19:26:22;;;;;;;36.13;19.73;;;-1.60;99.90;;;;;;4790362;29;20543;-79
2021/12/22 19:28:49;;;;;;;35.95;20.27;;;-1.60;99.90;;;;;;4801985;29;20049;-78
2021/12/22 19:31:16;;;;;;;38.95;20.70;;;-1.60;99.90;;;;;;4819355;29;20050;-78
2021/12/22 19:33:41;;;;;;;37.15;20.13;;;-1.60;99.90;;;;;;4803952;29;20083;-79
2021/12/22 19:36:07;;;;;;;37.58;20.02;;;-1.70;99.90;;;;;;4799330;29;20057;-79
2021/12/22 19:38:34;;;;;;;38.63;20.00;;;-1.70;99.90;;;;;;4803772;29;20042;-79
2021/12/22 19:41:00;;;;;;;33.67;19.20;;;-1.60;99.90;;;;;;4795055;29;20511;-79
2021/12/22 19:43:26;;;;;;;34.67;19.40;;;-1.70;99.90;;;;;;4800056;29;20209;-79
2021/12/22 19:45:53;;;;;;;37.55;20.92;;;-1.70;99.90;;;;;;4787585;29;20073;-79
2021/12/22 19:48:19;;;;;;;39.38;21.52;;;-1.70;99.90;;;;;;4802327;29;20580;-79
2021/12/22 19:50:48;;;;;;;36.58;19.40;;;-1.70;99.90;;;;;;4787505;29;20045;-78
2021/12/22 19:53:14;;;;;;;36.92;20.30;;;-1.70;99.90;;;;;;4800444;29;20456;-80
2021/12/22 19:55:41;;;;;;;37.13;20.20;;;-1.70;99.90;;;;;;4801319;29;20117;-79
2021/12/22 19:58:07;;;;;;;34.08;20.30;;;-1.60;99.90;;;;;;4789426;29;20157;-78
2021/12/22 20:00:34;;;;;;;38.50;20.88;;;-1.60;99.90;;;;;;4787513;29;20093;-78
2021/12/22 20:03:00;;;;;;;43.10;22.52;;;-1.60;99.90;;;;;;4784669;29;20525;-79
2021/12/22 20:05:27;;;;;;;46.67;24.98;;;-1.60;99.90;;;;;;4808492;29;20129;-78
2021/12/22 20:07:56;;;;;;;44.63;24.65;;;-1.60;99.90;;;;;;4801410;29;20050;-78
2021/12/22 20:10:22;;;;;;;35.10;21.33;;;-1.50;99.90;;;;;;4787660;29;20046;-78
2021/12/22 20:12:49;;;;;;;37.17;20.57;;;-1.40;99.90;;;;;;4812340;29;20062;-78
2021/12/22 20:15:16;;;;;;;33.13;19.65;;;-1.50;99.90;;;;;;4774766;29;20101;-78
2021/12/22 20:17:42;;;;;;;34.42;19.35;;;-1.50;99.90;;;;;;4807855;29;20070;-78
2021/12/22 20:20:11;;;;;;;36.17;19.10;;;-1.40;99.90;;;;;;4802240;29;20042;-79
2021/12/22 20:22:38;;;;;;;35.53;20.33;;;-1.40;99.90;;;;;;4815353;29;20261;-78
2021/12/22 20:25:06;;;;;;;34.35;19.77;;;-1.40;99.90;;;;;;4790960;29;20069;-78
2021/12/22 20:27:32;;;;;;;37.88;19.70;;;-1.40;99.90;;;;;;4813029;29;20054;-78
2021/12/22 20:29:57;;;;;;;37.05;20.13;;;-1.40;99.90;;;;;;4792224;29;20103;-80